X  Κλείσε Στοιχεία αεροπορικών μετεωρολογικών δεδομένων METAR     LGRX Patras Araxos Agamemnon Airport
Θερμοκρασία
13°C Θερμοκρασία
9°C Σημείο δρόσου
77% Σχετ. υγρασία



Ταχύτητα ανέμου
0 ΧΛΜ/Ω
0 MPH
0 M/S
0 KTS



Ηρεμία
Β
Τρέχουσες συνθήκες

Αίθριος Αίθριος
πίεση 1017.92 (hPa) - 30.06 (inHg)
Ορατότητα 6.2 (μίλι) - 10 (χλμ)
Aεροδρόμιο
Κωδικός αεροδρομίου LGRX

Τοποθεσία: Patras Araxos Agamemnon Airport
Απόσταση: 16 (χλμ)

Metar:
LGRX 252350Z 00000KT CAVOK 13/09 Q1018

ώρα: 26-09-2022 02:50 EEST